Time;durP1;ratioP1;P1;durP2;ratioP2;P2;SDS_P1;SDS_P2;PMS_P1;PMS_P2;Temp;Humidity;BMP_temperature;BMP_pressure;BME280_temperature;BME280_humidity;BME280_pressure;Samples;Min_cycle;Max_cycle;Signal;HPM_P1;HPM_P2
2023/07/10 00:01:24;;;;;;;13.65;11.93;;;18.90;99.90;;;;;;5046665;28;20041;-71
2023/07/10 00:03:51;;;;;;;20.60;12.73;;;;;;;;;;5059994;28;20036;-71
2023/07/10 00:06:17;;;;;;;21.80;14.23;;;;;;;;;;5045393;28;20414;-71
2023/07/10 00:08:43;;;;;;;22.08;14.65;;;19.00;99.90;;;;;;5044541;28;20050;-71
2023/07/10 00:11:16;;;;;;;19.52;14.23;;;19.00;99.90;;;;;;5044810;28;20048;-71
2023/07/10 00:13:42;;;;;;;20.10;15.50;;;18.90;99.90;;;;;;5041683;28;20044;-71
2023/07/10 00:16:18;;;;;;;23.75;15.02;;;18.90;99.90;;;;;;5041301;28;20398;-71
2023/07/10 00:18:44;;;;;;;17.13;14.43;;;19.00;99.90;;;;;;5044659;28;20083;-71
2023/07/10 00:21:10;;;;;;;18.25;14.02;;;;;;;;;;5063236;28;20068;-71
2023/07/10 00:23:36;;;;;;;22.50;15.80;;;19.00;99.90;;;;;;5035996;28;20140;-71
2023/07/10 00:26:22;;;;;;;24.17;16.80;;;19.00;99.90;;;;;;5062153;28;20571;-71
2023/07/10 00:28:51;;;;;;;25.58;16.67;;;19.10;99.90;;;;;;5061804;28;20089;-71
2023/07/10 00:31:17;;;;;;;19.05;15.80;;;19.10;99.90;;;;;;5060707;28;20414;-71
2023/07/10 00:33:47;;;;;;;30.13;17.33;;;19.10;99.90;;;;;;5060613;28;20078;-71
2023/07/10 00:36:29;;;;;;;23.67;17.70;;;18.90;99.90;;;;;;5063455;28;20048;-71
2023/07/10 00:38:55;;;;;;;23.67;17.67;;;19.20;99.90;;;;;;5057903;28;20051;-71
2023/07/10 00:41:28;;;;;;;30.80;18.70;;;19.10;99.90;;;;;;5045413;28;20119;-71
2023/07/10 00:44:00;;;;;;;29.58;20.40;;;19.10;99.90;;;;;;5057717;28;20455;-71
2023/07/10 00:46:41;;;;;;;34.95;22.05;;;19.20;99.90;;;;;;5060623;28;20573;-70
2023/07/10 00:49:14;;;;;;;31.02;19.60;;;19.40;99.90;;;;;;5050696;28;20090;-71
2023/07/10 00:51:47;;;;;;;30.35;18.00;;;19.30;99.90;;;;;;5036507;28;20048;-71
2023/07/10 00:54:29;;;;;;;25.13;17.85;;;19.20;99.90;;;;;;5062739;28;21409;-71
2023/07/10 00:56:57;;;;;;;33.83;19.60;;;19.20;99.90;;;;;;5062212;28;20402;-71
2023/07/10 00:59:26;;;;;;;27.77;18.52;;;19.40;99.90;;;;;;5039658;28;20056;-71
2023/07/10 01:02:07;;;;;;;25.95;17.48;;;19.20;99.90;;;;;;5042242;28;20040;-71
2023/07/10 01:04:39;;;;;;;27.15;16.55;;;19.10;99.90;;;;;;5039040;28;20051;-71
2023/07/10 01:07:07;;;;;;;32.72;18.17;;;19.10;99.90;;;;;;5062493;28;20481;-71
2023/07/10 01:09:33;;;;;;;32.53;18.40;;;19.20;99.90;;;;;;5057640;28;20060;-71
2023/07/10 01:11:58;;;;;;;23.00;16.13;;;19.40;99.90;;;;;;5043642;28;20243;-71
2023/07/10 01:14:24;;;;;;;23.08;16.63;;;19.10;99.90;;;;;;5056098;28;20041;-70
2023/07/10 01:16:51;;;;;;;29.95;17.58;;;19.10;99.90;;;;;;5059083;28;20040;-71
2023/07/10 01:19:21;;;;;;;23.23;15.93;;;19.20;99.90;;;;;;5060817;28;20048;-71
2023/07/10 01:21:47;;;;;;;26.08;16.58;;;19.10;99.90;;;;;;5060794;28;20036;-71
2023/07/10 01:24:13;;;;;;;28.83;16.17;;;;;;;;;;5044177;28;20314;-71
2023/07/10 01:26:40;;;;;;;21.23;14.88;;;18.90;99.90;;;;;;5041854;28;20379;-71
2023/07/10 01:29:19;;;;;;;25.58;16.08;;;18.80;99.90;;;;;;5044388;28;20052;-71
2023/07/10 01:31:46;;;;;;;19.83;14.48;;;19.00;99.90;;;;;;5042091;28;20208;-71
2023/07/10 01:34:12;;;;;;;26.30;15.93;;;18.90;99.90;;;;;;5063201;28;20082;-71
2023/07/10 01:36:39;;;;;;;20.02;15.48;;;18.70;99.90;;;;;;5058430;28;20501;-71
2023/07/10 01:39:17;;;;;;;22.13;15.15;;;18.60;99.90;;;;;;5060792;28;20044;-71
2023/07/10 01:41:45;;;;;;;20.35;15.32;;;18.70;99.90;;;;;;5061854;28;20115;-71
2023/07/10 01:44:29;;;;;;;30.67;16.45;;;18.70;99.90;;;;;;5061138;28;20469;-71
2023/07/10 01:46:56;;;;;;;23.58;14.95;;;18.50;99.90;;;;;;5060265;28;20043;-71
2023/07/10 01:49:24;;;;;;;26.42;17.02;;;18.70;99.90;;;;;;5036551;28;20053;-71
2023/07/10 01:51:52;;;;;;;23.52;16.00;;;18.70;99.90;;;;;;5060322;28;20559;-71
2023/07/10 01:54:18;;;;;;;24.33;14.18;;;;;;;;;;5059397;28;20429;-71
2023/07/10 01:56:44;;;;;;;24.02;15.63;;;18.70;99.90;;;;;;5062105;28;20057;-71
2023/07/10 01:59:10;;;;;;;20.95;15.15;;;;;;;;;;5039464;28;20162;-71
2023/07/10 02:01:36;;;;;;;21.98;15.38;;;18.60;99.90;;;;;;5043368;28;20045;-71
2023/07/10 02:04:02;;;;;;;24.73;17.42;;;18.70;99.90;;;;;;5040297;28;20734;-71
2023/07/10 02:06:28;;;;;;;19.17;15.60;;;18.60;99.90;;;;;;5056947;28;20040;-70
2023/07/10 02:08:54;;;;;;;24.08;16.27;;;18.60;99.90;;;;;;5062008;28;20051;-71
2023/07/10 02:11:19;;;;;;;20.88;15.23;;;18.80;99.90;;;;;;5045862;28;20052;-71
2023/07/10 02:13:45;;;;;;;18.90;13.93;;;18.60;99.90;;;;;;5022224;28;20098;-71
2023/07/10 02:16:12;;;;;;;20.55;15.00;;;18.50;99.90;;;;;;5042369;28;20048;-71
2023/07/10 02:18:38;;;;;;;26.00;15.88;;;;;;;;;;5039441;28;20048;-71
2023/07/10 02:21:04;;;;;;;23.35;14.73;;;;;;;;;;5055155;28;20184;-71
2023/07/10 02:23:30;;;;;;;21.70;14.43;;;;;;;;;;5036755;28;20170;-71
2023/07/10 02:25:56;;;;;;;21.52;15.05;;;18.50;99.90;;;;;;5043057;28;20635;-71
2023/07/10 02:28:22;;;;;;;23.08;15.95;;;18.70;99.90;;;;;;5044220;28;20059;-71
2023/07/10 02:30:48;;;;;;;20.17;15.50;;;18.70;99.90;;;;;;5046433;28;20558;-71
2023/07/10 02:33:14;;;;;;;19.38;14.60;;;;;;;;;;5067123;28;20206;-70
2023/07/10 02:35:40;;;;;;;19.20;12.90;;;18.80;99.90;;;;;;5060352;28;20383;-71
2023/07/10 02:38:07;;;;;;;21.90;14.63;;;18.60;99.90;;;;;;5038931;28;20037;-71
2023/07/10 02:40:33;;;;;;;17.42;14.80;;;18.60;99.90;;;;;;5045978;28;20393;-71
2023/07/10 02:42:59;;;;;;;18.73;14.57;;;;;;;;;;5067815;28;20040;-71
2023/07/10 02:45:25;;;;;;;19.10;13.85;;;18.50;99.90;;;;;;5074417;28;20151;-71
2023/07/10 02:47:51;;;;;;;25.55;16.63;;;18.40;99.90;;;;;;5073768;28;20043;-71
2023/07/10 02:50:17;;;;;;;21.88;15.52;;;18.50;99.90;;;;;;5067566;28;20048;-71
2023/07/10 02:52:43;;;;;;;22.08;17.83;;;;;;;;;;5065788;28;20052;-71
2023/07/10 02:55:08;;;;;;;16.83;15.02;;;;;;;;;;5063693;28;20068;-71
2023/07/10 02:57:35;;;;;;;24.92;15.85;;;;;;;;;;5043114;28;20053;-71
2023/07/10 03:00:00;;;;;;;22.42;17.17;;;18.30;99.90;;;;;;5064362;28;20043;-71
2023/07/10 03:02:26;;;;;;;24.52;16.92;;;;;;;;;;5044208;28;20032;-71
2023/07/10 03:04:52;;;;;;;19.83;15.30;;;18.50;99.90;;;;;;5046860;28;20123;-71
2023/07/10 03:07:17;;;;;;;18.85;15.82;;;18.40;99.90;;;;;;5066403;28;20046;-71
2023/07/10 03:09:44;;;;;;;24.38;16.05;;;;;;;;;;5044125;28;20052;-71
2023/07/10 03:12:10;;;;;;;24.55;15.57;;;18.40;99.90;;;;;;5063866;28;20051;-71
2023/07/10 03:14:35;;;;;;;20.17;16.38;;;18.10;99.90;;;;;;5065116;28;20041;-71
2023/07/10 03:17:01;;;;;;;21.17;14.85;;;;;;;;;;5046221;28;20044;-71
2023/07/10 03:19:31;;;;;;;24.02;15.82;;;18.30;99.90;;;;;;5061631;28;20036;-71
2023/07/10 03:21:57;;;;;;;21.35;15.32;;;18.20;99.90;;;;;;5058353;28;20055;-71
2023/07/10 03:24:24;;;;;;;18.58;14.23;;;;;;;;;;5044164;28;20040;-71
2023/07/10 03:26:49;;;;;;;20.83;15.90;;;18.30;99.90;;;;;;5042951;28;20050;-71
2023/07/10 03:29:15;;;;;;;22.20;15.80;;;18.30;99.90;;;;;;5063385;28;20044;-71
2023/07/10 03:31:42;;;;;;;20.33;15.13;;;;;;;;;;5042741;28;20696;-71
2023/07/10 03:34:08;;;;;;;21.80;15.63;;;18.20;99.90;;;;;;5042980;28;20043;-71
2023/07/10 03:36:34;;;;;;;25.15;18.17;;;18.40;99.90;;;;;;5065318;28;20045;-71
2023/07/10 03:39:00;;;;;;;19.00;16.63;;;18.20;99.90;;;;;;5049845;28;20036;-70
2023/07/10 03:41:26;;;;;;;23.25;17.98;;;18.00;99.90;;;;;;5045386;28;20047;-70
2023/07/10 03:43:52;;;;;;;25.05;16.73;;;18.10;99.90;;;;;;5047031;28;20640;-71
2023/07/10 03:46:18;;;;;;;19.80;17.00;;;18.10;99.90;;;;;;5061237;28;20067;-71
2023/07/10 03:48:44;;;;;;;19.33;15.57;;;18.20;99.90;;;;;;5062980;28;20038;-71
2023/07/10 03:51:10;;;;;;;19.90;15.35;;;;;;;;;;5042945;28;20491;-71
2023/07/10 03:53:36;;;;;;;20.95;15.63;;;18.30;99.90;;;;;;5043478;28;20080;-71
2023/07/10 03:56:02;;;;;;;17.38;14.57;;;;;;;;;;5063599;28;20064;-70
2023/07/10 03:58:31;;;;;;;19.13;15.60;;;18.10;99.90;;;;;;5065824;28;20483;-71
2023/07/10 04:00:58;;;;;;;17.77;14.07;;;17.90;99.90;;;;;;5064019;28;20040;-70
2023/07/10 04:03:25;;;;;;;18.35;14.73;;;18.10;99.90;;;;;;5062769;28;20059;-71
2023/07/10 04:05:54;;;;;;;15.63;12.98;;;18.20;99.90;;;;;;5063302;28;20036;-71
2023/07/10 04:08:24;;;;;;;17.48;14.10;;;18.10;99.90;;;;;;5042078;28;20380;-71
2023/07/10 04:10:54;;;;;;;18.20;14.50;;;18.30;99.90;;;;;;5062756;28;20045;-71
2023/07/10 04:13:20;;;;;;;15.23;11.85;;;18.10;99.90;;;;;;5043219;28;20070;-71
2023/07/10 04:16:05;;;;;;;12.52;8.35;;;18.10;99.90;;;;;;5039487;28;20748;-71
2023/07/10 04:18:38;;;;;;;13.40;7.77;;;18.10;99.90;;;;;;5050863;28;20052;-71
2023/07/10 04:21:07;;;;;;;12.70;7.38;;;18.30;99.90;;;;;;5038837;28;20045;-71
2023/07/10 04:23:33;;;;;;;8.93;7.03;;;;;;;;;;5042925;28;20041;-71
2023/07/10 04:25:59;;;;;;;8.93;5.07;;;;;;;;;;5060725;28;20037;-71
2023/07/10 04:28:25;;;;;;;7.30;5.00;;;;;;;;;;5043638;28;20565;-71
2023/07/10 04:30:51;;;;;;;6.35;4.07;;;18.20;99.90;;;;;;5037202;28;20048;-71
2023/07/10 04:33:18;;;;;;;12.15;5.43;;;18.10;99.90;;;;;;5045697;28;21693;-71
2023/07/10 04:35:50;;;;;;;8.30;4.88;;;18.20;99.90;;;;;;5037386;28;20128;-71
2023/07/10 04:38:16;;;;;;;8.93;4.85;;;;;;;;;;5063647;28;20047;-71
2023/07/10 04:40:52;;;;;;;6.55;4.38;;;18.30;99.90;;;;;;5042076;28;20052;-71
2023/07/10 04:43:18;;;;;;;7.75;4.10;;;;;;;;;;5059530;28;20050;-71
2023/07/10 04:45:43;;;;;;;6.20;3.92;;;;;;;;;;5043070;28;20094;-71
2023/07/10 04:48:09;;;;;;;6.50;3.97;;;;;;;;;;5046055;28;20121;-71
2023/07/10 04:50:35;;;;;;;6.88;4.68;;;;;;;;;;5031387;28;20055;-71
2023/07/10 04:53:01;;;;;;;7.70;3.90;;;;;;;;;;5037610;28;20065;-71
2023/07/10 04:55:27;;;;;;;7.03;3.58;;;;;;;;;;5042883;28;20056;-71
2023/07/10 04:57:53;;;;;;;5.38;3.60;;;18.10;99.90;;;;;;5062208;28;20055;-71
2023/07/10 05:00:19;;;;;;;23.00;5.10;;;18.10;99.90;;;;;;5060503;28;20066;-70
2023/07/10 05:02:44;;;;;;;7.07;4.05;;;18.30;99.90;;;;;;5064160;28;20079;-71
2023/07/10 05:05:10;;;;;;;8.40;3.28;;;18.30;99.90;;;;;;5063573;28;20033;-71
2023/07/10 05:07:36;;;;;;;5.28;2.88;;;;;;;;;;5061941;28;20062;-71
2023/07/10 05:10:01;;;;;;;4.82;3.17;;;18.20;99.90;;;;;;5065786;28;20040;-71
2023/07/10 05:12:27;;;;;;;7.30;3.25;;;;;;;;;;5049830;28;20051;-71
2023/07/10 05:14:53;;;;;;;5.68;2.63;;;;;;;;;;5047137;28;20315;-71
2023/07/10 05:17:19;;;;;;;8.90;3.05;;;18.30;99.90;;;;;;5047775;28;20041;-71
2023/07/10 05:19:45;;;;;;;9.60;2.55;;;;;;;;;;5041943;28;20063;-71
2023/07/10 05:22:11;;;;;;;7.55;2.80;;;;;;;;;;5053133;28;20036;-71
2023/07/10 05:24:36;;;;;;;8.80;3.30;;;18.30;99.90;;;;;;5074860;28;20040;-71
2023/07/10 05:27:02;;;;;;;8.95;3.42;;;18.40;99.90;;;;;;5070778;28;20056;-71
2023/07/10 05:29:28;;;;;;;8.45;3.50;;;;;;;;;;5071914;28;20050;-71
2023/07/10 05:31:56;;;;;;;6.15;2.60;;;;;;;;;;5048668;28;20056;-71
2023/07/10 05:34:23;;;;;;;5.45;2.40;;;;;;;;;;5069156;28;20062;-70
2023/07/10 05:36:49;;;;;;;7.00;2.70;;;18.50;99.90;;;;;;5044046;28;20070;-71
2023/07/10 05:39:15;;;;;;;7.05;3.00;;;18.50;99.90;;;;;;5064689;28;20036;-70
2023/07/10 05:41:41;;;;;;;7.13;2.00;;;;;;;;;;5043077;28;20049;-71
2023/07/10 05:44:07;;;;;;;7.93;2.40;;;19.20;99.90;;;;;;5067894;28;20032;-71
2023/07/10 05:46:32;;;;;;;8.25;2.70;;;19.60;99.90;;;;;;5059980;28;20076;-71
2023/07/10 05:48:58;;;;;;;10.23;2.30;;;20.10;99.90;;;;;;5038532;28;20067;-71
2023/07/10 05:51:23;;;;;;;8.60;2.75;;;20.10;99.90;;;;;;5059992;28;20454;-71
2023/07/10 05:53:49;;;;;;;10.27;2.00;;;20.70;99.90;;;;;;5067644;28;20399;-71
2023/07/10 05:56:15;;;;;;;9.90;2.33;;;21.10;99.90;;;;;;5042335;28;20045;-71
2023/07/10 05:58:41;;;;;;;6.53;1.70;;;21.60;99.90;;;;;;5065164;28;20036;-70
2023/07/10 06:01:08;;;;;;;9.23;2.00;;;21.70;99.90;;;;;;5061679;28;20040;-71
2023/07/10 06:03:34;;;;;;;9.30;2.05;;;22.20;99.90;;;;;;5046253;28;20068;-71
2023/07/10 06:06:03;;;;;;;3.65;1.17;;;23.00;99.90;;;;;;5059428;28;20174;-71
2023/07/10 06:08:29;;;;;;;7.15;1.60;;;23.20;99.90;;;;;;5067536;28;20078;-70
2023/07/10 06:10:55;;;;;;;6.45;1.50;;;24.10;99.90;;;;;;5072871;28;20046;-71
2023/07/10 06:13:21;;;;;;;5.43;2.00;;;24.90;99.90;;;;;;5067053;28;20044;-71
2023/07/10 06:15:49;;;;;;;4.65;1.50;;;25.20;99.90;;;;;;5066032;28;20089;-71
2023/07/10 06:18:16;;;;;;;5.88;1.63;;;25.60;99.90;;;;;;5045901;28;20068;-71
2023/07/10 06:20:42;;;;;;;7.15;1.70;;;25.80;99.90;;;;;;5067970;28;20150;-71
2023/07/10 06:23:08;;;;;;;6.97;2.28;;;26.20;99.90;;;;;;5050373;28;20048;-71
2023/07/10 06:25:34;;;;;;;12.20;2.03;;;26.40;99.90;;;;;;5062759;28;20037;-71
2023/07/10 06:27:59;;;;;;;6.38;1.58;;;26.70;99.90;;;;;;5041932;28;20040;-71
2023/07/10 06:30:25;;;;;;;8.80;1.98;;;27.20;99.90;;;;;;5058939;28;20498;-71
2023/07/10 06:32:51;;;;;;;5.95;1.52;;;28.60;99.90;;;;;;5068984;28;20040;-71
2023/07/10 06:35:17;;;;;;;7.43;1.73;;;28.00;99.90;;;;;;5066646;28;20029;-71
2023/07/10 06:37:44;;;;;;;5.05;1.00;;;28.20;99.90;;;;;;5043470;28;20039;-71
2023/07/10 06:40:12;;;;;;;7.70;1.17;;;28.00;99.90;;;;;;5044585;28;20094;-71
2023/07/10 06:42:39;;;;;;;5.20;1.35;;;30.10;99.90;;;;;;5055582;28;20462;-71
2023/07/10 06:45:05;;;;;;;4.53;1.25;;;27.70;99.90;;;;;;5043753;28;20111;-70
2023/07/10 06:47:32;;;;;;;8.35;1.13;;;27.10;99.90;;;;;;5036895;28;20128;-71
2023/07/10 06:49:58;;;;;;;5.35;1.25;;;26.00;99.90;;;;;;5054388;28;20099;-71
2023/07/10 06:52:24;;;;;;;10.00;1.90;;;26.10;99.90;;;;;;5059438;28;20048;-71
2023/07/10 06:54:50;;;;;;;9.85;1.50;;;24.80;99.90;;;;;;5045597;28;20927;-71
2023/07/10 06:57:15;;;;;;;7.30;1.80;;;24.40;99.90;;;;;;5045678;28;20409;-71
2023/07/10 06:59:41;;;;;;;8.90;1.40;;;23.90;99.90;;;;;;5059602;28;20148;-71
2023/07/10 07:02:11;;;;;;;5.88;1.52;;;23.80;99.90;;;;;;5049823;28;20036;-71
2023/07/10 07:04:37;;;;;;;6.25;1.80;;;23.30;99.90;;;;;;5051550;28;20128;-68
2023/07/10 07:07:03;;;;;;;8.85;2.00;;;23.00;99.90;;;;;;5058185;28;20119;-72
2023/07/10 07:09:28;;;;;;;8.88;2.17;;;23.20;99.90;;;;;;5051784;28;20121;-71
2023/07/10 07:11:54;;;;;;;8.43;1.98;;;24.00;99.90;;;;;;5063094;28;20049;-71
2023/07/10 07:14:19;;;;;;;6.80;1.52;;;23.40;99.90;;;;;;5131610;22;20457;-71
2023/07/10 07:16:45;;;;;;;7.30;1.60;;;22.30;99.90;;;;;;5087612;28;20145;-70
2023/07/10 07:19:10;;;;;;;6.45;1.60;;;22.60;99.90;;;;;;5081548;28;20044;-72
2023/07/10 07:21:36;;;;;;;8.27;1.55;;;22.20;99.90;;;;;;5068156;28;20040;-70
2023/07/10 07:24:01;;;;;;;7.13;1.90;;;21.80;99.90;;;;;;5060898;28;20045;-70
2023/07/10 07:26:27;;;;;;;5.50;1.40;;;22.00;99.90;;;;;;5038066;28;20041;-67
2023/07/10 07:28:53;;;;;;;11.63;1.95;;;21.90;99.90;;;;;;5055247;28;20043;-67
2023/07/10 07:31:18;;;;;;;9.75;2.28;;;23.10;99.90;;;;;;5058001;28;20116;-67
2023/07/10 07:33:44;;;;;;;6.38;1.85;;;23.20;99.90;;;;;;5043824;28;20084;-67
2023/07/10 07:36:09;;;;;;;10.25;1.63;;;22.90;99.90;;;;;;5051818;28;20091;-66
2023/07/10 07:38:35;;;;;;;9.88;1.65;;;21.90;99.90;;;;;;5056087;28;20125;-66
2023/07/10 07:41:00;;;;;;;6.80;1.95;;;21.60;99.90;;;;;;5041957;28;20047;-66
2023/07/10 07:43:28;;;;;;;9.25;2.38;;;21.70;99.90;;;;;;5061204;28;20621;-66
2023/07/10 07:45:56;;;;;;;9.27;1.60;;;21.70;99.90;;;;;;5058431;28;20851;-66
2023/07/10 07:48:22;;;;;;;9.70;1.92;;;22.90;99.90;;;;;;5057476;28;20055;-66
2023/07/10 07:51:14;;;;;;;12.23;1.88;;;21.70;99.90;;;;;;5056032;28;20051;-66
2023/07/10 07:53:43;;;;;;;8.27;1.73;;;21.50;99.90;;;;;;5038376;28;20053;-67
2023/07/10 07:56:10;;;;;;;9.27;1.80;;;21.90;99.90;;;;;;5023855;28;20051;-66
2023/07/10 07:58:36;;;;;;;8.65;1.90;;;21.60;99.90;;;;;;5053793;28;20058;-66
2023/07/10 08:01:02;;;;;;;7.97;1.45;;;21.60;99.90;;;;;;5058670;28;20040;-66
2023/07/10 08:03:32;;;;;;;9.27;1.90;;;22.10;99.90;;;;;;5060989;28;20067;-66
2023/07/10 08:05:57;;;;;;;11.00;1.55;;;21.80;99.90;;;;;;5038968;28;20097;-66
2023/07/10 08:08:26;;;;;;;10.70;1.98;;;21.80;99.90;;;;;;5042914;28;20057;-66
2023/07/10 08:10:52;;;;;;;4.47;1.70;;;22.00;99.90;;;;;;5063350;28;20372;-66
2023/07/10 08:13:20;;;;;;;11.27;2.17;;;21.80;99.90;;;;;;5060068;28;20048;-66
2023/07/10 08:15:46;;;;;;;9.90;2.90;;;21.90;99.90;;;;;;5042310;28;20100;-66
2023/07/10 08:18:12;;;;;;;9.55;1.67;;;23.10;99.90;;;;;;5057734;28;20073;-66
2023/07/10 08:20:37;;;;;;;11.02;2.13;;;21.80;99.90;;;;;;5037722;28;20032;-66
2023/07/10 08:23:04;;;;;;;5.80;1.65;;;22.00;99.90;;;;;;5030166;28;20041;-66
2023/07/10 08:25:30;;;;;;;7.65;2.40;;;23.30;99.90;;;;;;5060592;28;20036;-66
2023/07/10 08:28:00;;;;;;;14.00;2.72;;;24.00;99.90;;;;;;5055578;28;20123;-66
2023/07/10 08:30:26;;;;;;;7.55;1.85;;;22.80;99.90;;;;;;5054018;28;20048;-66
2023/07/10 08:32:53;;;;;;;12.48;2.45;;;22.40;99.90;;;;;;5041133;28;21709;-66
2023/07/10 08:35:35;;;;;;;6.90;2.05;;;22.20;99.90;;;;;;5056305;28;20503;-66
2023/07/10 08:38:22;;;;;;;10.05;2.08;;;22.10;99.90;;;;;;5038286;28;20041;-67
2023/07/10 08:40:51;;;;;;;7.65;2.00;;;22.20;99.90;;;;;;5059794;28;20029;-67
2023/07/10 08:43:40;;;;;;;13.00;2.85;;;22.00;99.90;;;;;;5058540;28;20040;-66
2023/07/10 08:46:19;;;;;;;14.02;2.53;;;22.40;99.90;;;;;;5054952;28;20036;-67
2023/07/10 08:49:07;;;;;;;11.68;2.50;;;21.90;99.90;;;;;;5043513;28;20036;-66
2023/07/10 08:51:54;;;;;;;9.57;2.58;;;22.50;99.90;;;;;;5036407;28;20170;-66
2023/07/10 08:54:20;;;;;;;11.07;2.55;;;22.70;99.90;;;;;;5046654;28;20052;-66
2023/07/10 08:57:04;;;;;;;13.30;2.60;;;22.30;99.90;;;;;;5060424;28;20089;-66
2023/07/10 09:00:07;;;;;;;10.65;2.85;;;22.50;99.90;;;;;;5022939;28;20044;-66
2023/07/10 09:02:53;;;;;;;9.93;1.83;;;22.70;99.90;;;;;;5056936;28;20041;-66
2023/07/10 09:05:22;;;;;;;10.88;1.90;;;22.80;99.90;;;;;;5049958;28;20123;-66
2023/07/10 09:07:49;;;;;;;9.15;1.83;;;23.10;99.90;;;;;;5029062;28;20051;-66
2023/07/10 09:10:25;;;;;;;7.68;2.10;;;22.70;99.90;;;;;;5052653;28;20351;-67
2023/07/10 09:12:57;;;;;;;12.00;2.53;;;22.70;99.90;;;;;;5039956;28;20453;-67
2023/07/10 09:15:30;;;;;;;10.38;2.10;;;22.90;99.90;;;;;;5017210;28;20408;-66
2023/07/10 09:18:23;;;;;;;10.05;2.25;;;23.10;99.90;;;;;;5050931;28;20052;-66
2023/07/10 09:20:58;;;;;;;7.72;2.15;;;23.00;99.90;;;;;;5050396;28;20040;-66
2023/07/10 09:23:30;;;;;;;7.45;1.95;;;22.90;99.90;;;;;;5041617;28;20055;-67
2023/07/10 09:25:58;;;;;;;13.35;2.25;;;24.50;99.90;;;;;;5039145;28;20167;-66
2023/07/10 09:28:25;;;;;;;8.05;1.40;;;23.30;99.90;;;;;;5043234;28;20054;-66
2023/07/10 09:31:15;;;;;;;13.27;1.98;;;23.30;99.90;;;;;;5054357;28;20069;-67
2023/07/10 09:33:51;;;;;;;7.30;1.80;;;23.60;99.90;;;;;;5039626;28;20230;-67
2023/07/10 09:36:21;;;;;;;9.30;2.10;;;23.40;99.90;;;;;;5042451;28;20040;-67
2023/07/10 09:38:51;;;;;;;10.18;2.20;;;23.40;99.90;;;;;;5060463;28;20044;-67
2023/07/10 09:41:26;;;;;;;9.60;2.00;;;23.50;99.90;;;;;;5023254;28;20057;-67
2023/07/10 09:44:20;;;;;;;8.85;1.88;;;23.70;99.90;;;;;;5060560;28;20151;-67
2023/07/10 09:46:48;;;;;;;10.95;1.80;;;23.50;99.90;;;;;;5031936;28;20052;-67
2023/07/10 09:49:20;;;;;;;9.05;2.10;;;23.50;99.90;;;;;;5060473;28;20261;-68
2023/07/10 09:52:14;;;;;;;11.15;1.60;;;23.60;99.90;;;;;;5056373;28;20090;-68
2023/07/10 09:54:40;;;;;;;9.17;1.93;;;23.70;99.90;;;;;;5061615;28;20089;-68
2023/07/10 09:57:16;;;;;;;9.07;2.00;;;23.50;99.90;;;;;;5048240;28;20045;-67
2023/07/10 09:59:54;;;;;;;10.00;1.90;;;23.60;99.90;;;;;;5043730;28;20492;-68
2023/07/10 10:02:24;;;;;;;8.38;1.92;;;24.70;99.90;;;;;;5034461;28;20033;-68
2023/07/10 10:05:21;;;;;;;7.43;1.75;;;23.70;99.90;;;;;;5023482;28;20490;-68
2023/07/10 10:07:49;;;;;;;9.07;1.48;;;23.40;99.90;;;;;;5040052;28;20112;-68
2023/07/10 10:10:31;;;;;;;11.13;1.73;;;23.30;99.90;;;;;;5045745;28;20045;-68
2023/07/10 10:13:23;;;;;;;11.90;1.95;;;23.70;99.90;;;;;;5048215;28;20084;-68
2023/07/10 10:16:27;;;;;;;7.63;1.40;;;23.70;99.90;;;;;;5024018;28;20081;-67
2023/07/10 10:18:58;;;;;;;6.50;1.23;;;23.50;99.90;;;;;;5028948;28;20055;-68
2023/07/10 10:21:27;;;;;;;10.60;1.80;;;23.50;99.90;;;;;;5042321;28;20051;-68
2023/07/10 10:23:58;;;;;;;9.38;2.17;;;23.80;99.90;;;;;;5061208;28;20051;-68
2023/07/10 10:26:29;;;;;;;10.93;1.75;;;23.70;99.90;;;;;;5065994;28;20032;-68
2023/07/10 10:29:23;;;;;;;5.25;1.58;;;23.50;99.90;;;;;;5023419;28;20052;-68
2023/07/10 10:32:05;;;;;;;13.18;1.50;;;23.90;99.90;;;;;;5045262;28;20083;-68
2023/07/10 10:34:52;;;;;;;11.85;2.15;;;23.70;99.90;;;;;;5041130;28;20505;-68
2023/07/10 10:37:28;;;;;;;7.55;1.90;;;25.60;99.90;;;;;;5051074;28;20498;-68
2023/07/10 10:40:28;;;;;;;10.00;1.52;;;24.10;99.90;;;;;;5019207;28;20286;-68
2023/07/10 10:43:22;;;;;;;7.60;1.55;;;24.00;99.90;;;;;;5039238;28;20477;-68
2023/07/10 10:46:21;;;;;;;6.30;0.97;;;24.20;99.90;;;;;;5037005;28;20605;-68
2023/07/10 10:49:25;;;;;;;13.93;1.80;;;24.10;99.90;;;;;;5010092;28;20049;-69
2023/07/10 10:52:05;;;;;;;9.77;1.85;;;24.10;99.90;;;;;;5046715;28;20049;-68
2023/07/10 10:54:41;;;;;;;9.52;1.63;;;24.50;99.90;;;;;;5058174;28;20526;-69
2023/07/10 10:57:22;;;;;;;11.77;1.50;;;24.50;99.90;;;;;;5062644;28;20076;-69
2023/07/10 11:00:19;;;;;;;14.65;1.83;;;24.40;99.90;;;;;;5059697;28;20047;-69
2023/07/10 11:03:16;;;;;;;11.10;1.38;;;24.10;99.90;;;;;;5055424;28;20627;-68
2023/07/10 11:05:52;;;;;;;8.05;1.50;;;24.20;99.90;;;;;;5047247;28;20044;-68
2023/07/10 11:08:29;;;;;;;9.35;1.90;;;24.40;99.90;;;;;;5023655;28;20049;-68
2023/07/10 11:10:56;;;;;;;10.50;1.77;;;24.30;99.90;;;;;;5056585;28;20111;-68
2023/07/10 11:13:31;;;;;;;6.72;1.42;;;24.60;99.90;;;;;;5044448;28;20121;-68
2023/07/10 11:15:57;;;;;;;8.85;1.67;;;24.20;99.90;;;;;;5041346;28;20040;-68
2023/07/10 11:18:24;;;;;;;10.30;1.73;;;24.10;99.90;;;;;;5045197;28;20131;-68
2023/07/10 11:20:51;;;;;;;8.52;1.13;;;24.20;99.90;;;;;;5040694;28;20726;-68
2023/07/10 11:23:43;;;;;;;9.50;1.50;;;23.70;99.90;;;;;;5040095;28;20045;-68
2023/07/10 11:26:15;;;;;;;10.88;1.42;;;24.10;99.90;;;;;;5026974;28;20152;-68
2023/07/10 11:29:19;;;;;;;5.80;0.90;;;24.10;99.90;;;;;;5045801;28;20044;-67
2023/07/10 11:31:52;;;;;;;5.55;0.82;;;25.20;99.90;;;;;;5043546;28;20060;-68
2023/07/10 11:34:48;;;;;;;11.25;2.10;;;23.90;99.90;;;;;;5058926;28;20052;-68
2023/07/10 11:37:34;;;;;;;8.35;1.40;;;23.60;99.90;;;;;;5044532;28;20068;-68
2023/07/10 11:40:29;;;;;;;8.88;0.98;;;24.00;99.90;;;;;;5062831;28;20037;-68
2023/07/10 11:42:56;;;;;;;;;;;24.10;99.90;;;;;;5042665;28;20076;-68
2023/07/10 11:45:34;;;;;;;6.50;1.42;;;25.00;99.90;;;;;;5061422;28;19923;-68
2023/07/10 11:48:01;;;;;;;7.43;1.42;;;24.40;99.90;;;;;;5048278;28;20051;-70
2023/07/10 11:50:31;;;;;;;4.82;0.77;;;24.10;99.90;;;;;;5061024;28;20032;-69
2023/07/10 11:53:27;;;;;;;6.65;0.90;;;24.40;99.90;;;;;;5060836;28;20044;-73
2023/07/10 11:55:58;;;;;;;4.90;1.23;;;25.80;99.90;;;;;;5046447;28;20569;-70
2023/07/10 11:58:29;;;;;;;4.68;1.20;;;24.10;99.90;;;;;;5059063;28;20055;-72
2023/07/10 12:01:05;;;;;;;8.57;1.20;;;24.00;99.90;;;;;;5065249;28;20079;-69
2023/07/10 12:03:33;;;;;;;7.53;1.55;;;24.40;99.90;;;;;;5055544;28;20465;-69
2023/07/10 12:06:01;;;;;;;8.25;1.55;;;25.70;99.90;;;;;;5038519;28;20085;-69
2023/07/10 12:08:29;;;;;;;7.53;1.13;;;24.60;99.90;;;;;;5041168;28;20443;-69
2023/07/10 12:10:55;;;;;;;5.18;0.60;;;24.70;99.90;;;;;;5061849;28;20076;-68
2023/07/10 12:13:30;;;;;;;5.90;0.85;;;24.30;99.90;;;;;;5062347;28;20451;-69
2023/07/10 12:16:03;;;;;;;7.43;1.02;;;25.50;99.90;;;;;;5045621;28;20040;-69
2023/07/10 12:18:34;;;;;;;5.53;1.17;;;24.50;99.90;;;;;;5045079;28;20680;-69
2023/07/10 12:21:03;;;;;;;7.70;0.90;;;24.40;99.90;;;;;;5057051;28;20144;-68
2023/07/10 12:23:29;;;;;;;9.18;0.90;;;24.70;99.90;;;;;;5056446;28;20134;-69
2023/07/10 12:25:58;;;;;;;5.28;1.00;;;24.50;99.90;;;;;;5052340;28;21046;-69
2023/07/10 12:28:26;;;;;;;4.18;0.85;;;24.80;99.90;;;;;;5034141;28;20036;-68
2023/07/10 12:30:54;;;;;;;7.57;0.95;;;24.60;99.90;;;;;;5063254;28;20637;-68
2023/07/10 12:33:29;;;;;;;4.65;0.73;;;24.30;99.90;;;;;;5042887;28;20098;-68
2023/07/10 12:35:55;;;;;;;5.75;1.10;;;24.30;99.90;;;;;;5034494;28;20044;-68
2023/07/10 12:38:21;;;;;;;5.25;0.65;;;24.40;99.90;;;;;;5057477;28;20519;-68
2023/07/10 12:40:55;;;;;;;4.30;0.82;;;24.10;99.90;;;;;;5049868;28;20135;-68
2023/07/10 12:43:24;;;;;;;7.07;0.60;;;24.90;99.90;;;;;;5037891;28;20117;-68
2023/07/10 12:46:02;;;;;;;11.98;1.05;;;24.60;99.90;;;;;;5055510;28;20064;-69
2023/07/10 12:48:33;;;;;;;3.88;0.60;;;25.20;99.90;;;;;;5053776;28;20068;-68
2023/07/10 12:51:02;;;;;;;8.20;1.25;;;24.60;99.90;;;;;;5056203;28;20094;-69
2023/07/10 12:53:34;;;;;;;7.80;1.23;;;24.50;99.90;;;;;;5051144;28;20461;-70
2023/07/10 12:56:17;;;;;;;5.95;0.90;;;24.90;99.90;;;;;;5053495;28;20037;-70
2023/07/10 12:58:46;;;;;;;3.72;0.50;;;24.60;99.90;;;;;;5038762;28;20145;-70
2023/07/10 13:01:32;;;;;;;8.07;0.90;;;25.40;99.90;;;;;;5031796;28;20048;-70
2023/07/10 13:04:06;;;;;;;8.30;0.82;;;24.70;99.90;;;;;;5039650;28;20524;-71
2023/07/10 13:06:33;;;;;;;7.30;0.70;;;24.50;99.90;;;;;;5058024;28;20071;-70
2023/07/10 13:09:02;;;;;;;5.30;0.82;;;25.80;99.90;;;;;;5030710;28;20082;-70
2023/07/10 13:11:28;;;;;;;2.58;0.55;;;24.30;99.90;;;;;;5040085;28;20029;-71